Time;durP1;ratioP1;P1;durP2;ratioP2;P2;SDS_P1;SDS_P2;PMS_P1;PMS_P2;Temp;Humidity;BMP_temperature;BMP_pressure;BME280_temperature;BME280_humidity;BME280_pressure;Samples;Min_cycle;Max_cycle;Signal;HPM_P1;HPM_P2
2020/12/15 00:00:05;;;;;;;56.95;31.15;;;0.90;99.90;;;;;;5092944;28;20206;-61
2020/12/15 00:02:32;;;;;;;51.95;35.63;;;0.60;99.90;;;;;;5094760;28;20207;-61
2020/12/15 00:04:59;;;;;;;71.40;38.05;;;0.50;99.90;;;;;;5097757;28;20216;-61
2020/12/15 00:07:26;;;;;;;61.25;31.63;;;0.60;99.90;;;;;;5097587;28;20220;-60
2020/12/15 00:09:54;;;;;;;71.65;38.97;;;0.60;99.90;;;;;;5093052;28;20213;-62
2020/12/15 00:12:20;;;;;;;64.53;32.92;;;0.50;99.90;;;;;;5098559;28;20236;-60
2020/12/15 00:14:47;;;;;;;66.50;36.90;;;1.10;99.90;;;;;;5094700;28;20619;-61
2020/12/15 00:17:13;;;;;;;49.30;30.17;;;0.50;99.90;;;;;;5099690;28;20480;-61
2020/12/15 00:19:40;;;;;;;59.75;31.63;;;0.50;99.90;;;;;;5098859;28;20230;-61
2020/12/15 00:22:07;;;;;;;63.90;34.90;;;0.50;99.90;;;;;;5098007;28;20245;-62
2020/12/15 00:24:34;;;;;;;58.97;29.60;;;0.50;99.90;;;;;;5097806;28;20202;-61
2020/12/15 00:27:00;;;;;;;57.38;34.58;;;1.30;99.90;;;;;;5090858;28;20409;-61
2020/12/15 00:29:27;;;;;;;65.85;34.05;;;0.60;99.90;;;;;;5090976;28;20224;-66
2020/12/15 00:31:54;;;;;;;59.55;31.05;;;0.60;99.90;;;;;;5098975;28;20253;-61
2020/12/15 00:34:20;;;;;;;66.95;39.67;;;0.80;99.90;;;;;;5098953;28;20244;-61
2020/12/15 00:36:47;;;;;;;49.10;32.28;;;0.40;99.90;;;;;;5097897;28;20526;-61
2020/12/15 00:39:13;;;;;;;68.97;33.15;;;0.50;99.90;;;;;;5098816;28;20210;-61
2020/12/15 00:41:40;;;;;;;47.65;32.22;;;0.50;99.90;;;;;;5094989;28;20701;-61
2020/12/15 00:44:07;;;;;;;66.97;34.45;;;1.30;99.90;;;;;;5095288;28;20255;-61
2020/12/15 00:46:34;;;;;;;57.33;32.30;;;0.40;99.90;;;;;;5094639;28;20207;-60
2020/12/15 00:49:01;;;;;;;69.40;37.42;;;0.50;99.90;;;;;;5100991;28;20234;-61
2020/12/15 00:51:28;;;;;;;72.90;32.97;;;0.60;99.90;;;;;;5100317;28;20218;-63
2020/12/15 00:53:54;;;;;;;68.25;36.33;;;0.70;99.90;;;;;;5101275;28;20233;-62
2020/12/15 00:56:21;;;;;;;57.17;35.17;;;0.50;99.90;;;;;;5099073;28;20202;-60
2020/12/15 00:58:47;;;;;;;55.92;31.35;;;0.50;99.90;;;;;;5096280;28;20225;-61
2020/12/15 01:01:14;;;;;;;57.92;31.33;;;0.60;99.90;;;;;;5097935;28;20205;-61
2020/12/15 01:03:41;;;;;;;65.78;35.92;;;0.60;99.90;;;;;;5100508;28;20206;-61
2020/12/15 01:06:09;;;;;;;57.55;33.38;;;0.70;99.90;;;;;;5092407;28;20438;-61
2020/12/15 01:08:36;;;;;;;61.83;35.72;;;1.00;99.90;;;;;;5089279;28;20370;-61
2020/12/15 01:11:13;;;;;;;51.60;31.95;;;1.50;99.90;;;;;;5097622;28;20220;-61
2020/12/15 01:13:40;;;;;;;62.22;33.22;;;0.70;99.90;;;;;;5098598;28;20225;-61
2020/12/15 01:16:07;;;;;;;50.88;32.17;;;0.70;99.90;;;;;;5099460;28;20202;-61
2020/12/15 01:18:37;;;;;;;60.97;32.80;;;0.80;99.90;;;;;;5096141;28;20238;-61
2020/12/15 01:21:05;;;;;;;62.03;33.25;;;0.60;99.90;;;;;;5092795;28;20206;-62
2020/12/15 01:23:31;;;;;;;50.20;32.40;;;0.50;99.90;;;;;;5097102;28;20210;-62
2020/12/15 01:25:58;;;;;;;69.93;37.00;;;0.40;99.90;;;;;;5098932;28;20262;-62
2020/12/15 01:28:25;;;;;;;47.60;32.38;;;0.50;99.90;;;;;;5096734;28;20229;-60
2020/12/15 01:30:51;;;;;;;51.60;34.35;;;0.50;99.90;;;;;;5101290;28;20271;-61
2020/12/15 01:33:18;;;;;;;63.20;35.08;;;0.60;99.90;;;;;;5096861;28;20229;-60
2020/12/15 01:35:45;;;;;;;55.85;31.60;;;0.70;99.90;;;;;;5099363;28;20275;-60
2020/12/15 01:38:12;;;;;;;62.13;32.75;;;0.60;99.90;;;;;;5100598;28;20210;-61
2020/12/15 01:40:46;;;;;;;64.57;33.13;;;1.30;99.90;;;;;;5096737;28;20206;-61
2020/12/15 01:43:13;;;;;;;66.88;35.58;;;0.60;99.90;;;;;;5097706;28;20375;-61
2020/12/15 01:45:39;;;;;;;48.78;33.38;;;0.70;99.90;;;;;;5094088;28;20210;-62
2020/12/15 01:48:07;;;;;;;55.40;30.65;;;0.60;99.90;;;;;;5099000;28;20202;-62
2020/12/15 01:50:34;;;;;;;63.70;32.67;;;1.40;99.90;;;;;;5097060;28;20581;-61
2020/12/15 01:53:01;;;;;;;55.92;34.63;;;0.60;99.90;;;;;;5095960;28;20226;-62
2020/12/15 01:55:29;;;;;;;64.22;32.28;;;0.50;99.90;;;;;;5094943;28;20400;-61
2020/12/15 01:57:56;;;;;;;51.28;32.42;;;0.40;99.90;;;;;;5099572;28;20503;-62
2020/12/15 02:00:22;;;;;;;53.67;32.20;;;0.40;99.90;;;;;;5092484;28;20209;-61
2020/12/15 02:02:49;;;;;;;72.85;32.67;;;0.40;99.90;;;;;;5096884;28;20210;-61
2020/12/15 02:05:15;;;;;;;49.28;30.88;;;1.00;99.90;;;;;;5095135;28;20539;-61
2020/12/15 02:07:43;;;;;;;56.92;34.10;;;0.40;99.90;;;;;;5096246;28;20202;-60
2020/12/15 02:10:09;;;;;;;61.60;36.00;;;0.40;99.90;;;;;;5098161;28;20210;-61
2020/12/15 02:12:36;;;;;;;69.93;32.97;;;0.90;99.90;;;;;;5088075;28;20305;-62
2020/12/15 02:15:06;;;;;;;60.53;30.63;;;0.60;99.90;;;;;;5095560;28;20303;-62
2020/12/15 02:17:34;;;;;;;51.30;30.92;;;0.60;99.90;;;;;;5092980;28;20203;-61
2020/12/15 02:20:08;;;;;;;50.15;28.48;;;0.50;99.90;;;;;;5086868;28;20763;-61
2020/12/15 02:22:35;;;;;;;64.55;32.35;;;0.40;99.90;;;;;;5089060;28;20496;-61
2020/12/15 02:25:07;;;;;;;52.03;30.33;;;0.50;99.90;;;;;;5091986;28;20213;-61
2020/12/15 02:27:33;;;;;;;56.13;34.35;;;0.40;99.90;;;;;;5091754;28;20535;-61
2020/12/15 02:30:00;;;;;;;71.70;33.97;;;0.30;99.90;;;;;;5092908;28;20207;-61
2020/12/15 02:32:32;;;;;;;63.70;34.40;;;0.30;99.90;;;;;;5094399;28;20238;-61
2020/12/15 02:34:59;;;;;;;66.53;31.52;;;0.30;99.90;;;;;;5094771;28;20206;-62
2020/12/15 02:37:26;;;;;;;56.30;35.80;;;0.30;99.90;;;;;;5097758;28;20532;-61
2020/12/15 02:40:00;;;;;;;53.95;29.70;;;0.20;99.90;;;;;;5093255;28;20210;-61
2020/12/15 02:42:29;;;;;;;50.20;27.55;;;0.20;99.90;;;;;;5097594;28;20636;-60
2020/12/15 02:44:57;;;;;;;52.70;34.45;;;0.20;99.90;;;;;;5095300;28;20283;-62
2020/12/15 02:47:24;;;;;;;48.00;29.30;;;0.20;99.90;;;;;;5093247;28;20203;-62
2020/12/15 02:49:50;;;;;;;63.25;31.38;;;0.20;99.90;;;;;;5095912;28;20202;-61
2020/12/15 02:52:19;;;;;;;51.33;32.05;;;0.20;99.90;;;;;;5093939;28;20226;-61
2020/12/15 02:54:47;;;;;;;58.45;31.98;;;0.30;99.90;;;;;;5093732;28;20210;-60
2020/12/15 02:57:15;;;;;;;50.80;33.10;;;0.30;99.90;;;;;;5096517;28;20202;-62
2020/12/15 02:59:42;;;;;;;51.35;32.50;;;0.30;99.90;;;;;;5095467;28;20207;-60
2020/12/15 03:02:09;;;;;;;65.72;37.75;;;0.40;99.90;;;;;;5095253;28;20435;-61
2020/12/15 03:04:36;;;;;;;57.60;30.95;;;0.70;99.90;;;;;;5093818;28;20244;-60
2020/12/15 03:07:04;;;;;;;56.42;33.17;;;0.40;99.90;;;;;;5095700;28;20270;-62
2020/12/15 03:09:31;;;;;;;60.40;30.23;;;0.30;99.90;;;;;;5094396;28;20208;-62
2020/12/15 03:12:02;;;;;;;66.82;35.85;;;0.30;99.90;;;;;;5092652;28;20210;-62
2020/12/15 03:14:29;;;;;;;57.88;31.23;;;0.30;99.90;;;;;;5094841;28;20200;-62
2020/12/15 03:16:56;;;;;;;40.13;27.20;;;0.30;99.90;;;;;;5094066;28;20210;-61
2020/12/15 03:19:22;;;;;;;48.08;30.48;;;0.30;99.90;;;;;;5092373;28;20566;-62
2020/12/15 03:21:49;;;;;;;42.25;25.10;;;0.20;99.90;;;;;;5095321;28;20190;-61
2020/12/15 03:24:16;;;;;;;47.88;28.50;;;0.30;99.90;;;;;;5095643;28;20209;-61
2020/12/15 03:26:42;;;;;;;61.60;29.83;;;0.30;99.90;;;;;;5094922;28;20213;-61
2020/12/15 03:29:09;;;;;;;61.17;34.80;;;0.20;99.90;;;;;;5095565;28;20209;-62
2020/12/15 03:31:35;;;;;;;63.85;31.27;;;0.10;99.90;;;;;;5092565;28;20485;-61
2020/12/15 03:34:02;;;;;;;64.18;36.90;;;0.10;99.90;;;;;;5096304;28;20555;-61
2020/12/15 03:36:29;;;;;;;45.22;27.60;;;0.10;99.90;;;;;;5096492;28;20202;-62
2020/12/15 03:38:55;;;;;;;52.10;32.83;;;0.00;99.90;;;;;;5088461;28;20212;-61
2020/12/15 03:41:22;;;;;;;55.55;29.80;;;0.10;99.90;;;;;;5089754;28;20497;-61
2020/12/15 03:43:49;;;;;;;62.05;32.95;;;0.20;99.90;;;;;;5095417;28;20552;-61
2020/12/15 03:46:15;;;;;;;59.53;32.17;;;0.20;99.90;;;;;;5097696;28;20273;-62
2020/12/15 03:48:42;;;;;;;43.95;30.65;;;0.20;99.90;;;;;;5092735;28;20233;-61
2020/12/15 03:51:08;;;;;;;58.83;31.08;;;0.80;99.90;;;;;;5095753;28;20393;-62
2020/12/15 03:53:35;;;;;;;56.28;32.03;;;0.20;99.90;;;;;;5096993;28;20226;-61
2020/12/15 03:56:01;;;;;;;44.72;28.33;;;0.20;99.90;;;;;;5100440;28;20272;-62
2020/12/15 03:58:28;;;;;;;54.75;35.03;;;0.20;99.90;;;;;;5101226;28;20239;-61
2020/12/15 04:00:55;;;;;;;50.03;30.50;;;0.20;99.90;;;;;;5097792;28;20210;-61
2020/12/15 04:03:21;;;;;;;55.75;32.55;;;0.10;99.90;;;;;;5097614;28;20210;-61
2020/12/15 04:05:48;;;;;;;52.17;30.08;;;0.10;99.90;;;;;;5093261;28;20202;-61
2020/12/15 04:08:15;;;;;;;54.40;31.20;;;0.20;99.90;;;;;;5099505;28;20370;-62
2020/12/15 04:10:41;;;;;;;53.38;30.67;;;0.20;99.90;;;;;;5099381;28;20209;-61
2020/12/15 04:13:08;;;;;;;60.05;31.92;;;0.10;99.90;;;;;;5097776;28;20226;-61
2020/12/15 04:15:34;;;;;;;58.50;32.10;;;0.10;99.90;;;;;;5098244;28;20230;-61
2020/12/15 04:18:01;;;;;;;55.63;31.98;;;0.10;99.90;;;;;;5095187;28;20206;-61
2020/12/15 04:20:28;;;;;;;55.88;29.77;;;0.20;99.90;;;;;;5099727;28;20548;-62
2020/12/15 04:22:55;;;;;;;57.63;33.75;;;0.10;99.90;;;;;;5094403;28;20241;-62
2020/12/15 04:25:21;;;;;;;44.47;29.75;;;0.60;99.90;;;;;;5100571;28;20203;-60
2020/12/15 04:27:48;;;;;;;43.60;31.38;;;0.00;99.90;;;;;;5100470;28;20202;-61
2020/12/15 04:30:15;;;;;;;53.25;29.50;;;-0.40;99.90;;;;;;5101389;28;20206;-62
2020/12/15 04:32:41;;;;;;;66.90;31.38;;;0.10;99.90;;;;;;5097722;28;20229;-61
2020/12/15 04:35:08;;;;;;;48.80;28.85;;;0.00;99.90;;;;;;5100949;28;20203;-61
2020/12/15 04:37:34;;;;;;;58.35;30.25;;;0.00;99.90;;;;;;5097642;28;20206;-61
2020/12/15 04:40:01;;;;;;;47.55;28.80;;;-0.10;99.90;;;;;;5101284;28;20206;-61
2020/12/15 04:42:28;;;;;;;56.75;29.17;;;-0.10;99.90;;;;;;5093875;28;20206;-61
2020/12/15 04:44:55;;;;;;;46.47;27.77;;;0.10;99.90;;;;;;5097387;28;20206;-61
2020/12/15 04:47:45;;;;;;;55.25;28.27;;;0.00;99.90;;;;;;5095979;28;20209;-61
2020/12/15 04:50:14;;;;;;;49.67;30.45;;;0.00;99.90;;;;;;5097491;28;20206;-61
2020/12/15 04:52:58;;;;;;;60.72;30.73;;;0.10;99.90;;;;;;5097992;28;20333;-61
2020/12/15 04:55:25;;;;;;;40.88;26.02;;;-0.10;99.90;;;;;;5095070;28;20203;-61
2020/12/15 04:57:59;;;;;;;45.95;26.20;;;-0.10;99.90;;;;;;5097389;28;20202;-61
2020/12/15 05:00:27;;;;;;;53.78;29.48;;;-0.10;99.90;;;;;;5098747;28;20206;-62
2020/12/15 05:02:55;;;;;;;43.15;25.77;;;-0.10;99.90;;;;;;5094624;28;20215;-62
2020/12/15 05:05:22;;;;;;;41.47;28.48;;;0.60;99.90;;;;;;5099942;28;20768;-62
2020/12/15 05:07:49;;;;;;;52.35;30.02;;;0.10;99.90;;;;;;5101474;28;20266;-61
2020/12/15 05:10:18;;;;;;;54.90;26.92;;;-0.10;99.90;;;;;;5100366;28;20202;-61
2020/12/15 05:12:46;;;;;;;66.47;32.75;;;-0.10;99.90;;;;;;5098305;28;20229;-62
2020/12/15 05:15:15;;;;;;;45.75;24.98;;;-0.10;99.90;;;;;;5099713;28;20538;-60
2020/12/15 05:17:42;;;;;;;47.15;25.42;;;0.20;99.90;;;;;;5097650;28;20207;-61
2020/12/15 05:20:10;;;;;;;44.33;23.20;;;0.10;99.90;;;;;;5099189;28;20238;-61
2020/12/15 05:22:46;;;;;;;43.78;25.40;;;0.10;99.90;;;;;;5097041;28;20213;-61
2020/12/15 05:25:29;;;;;;;33.25;19.17;;;0.00;99.90;;;;;;5097625;28;20297;-61
2020/12/15 05:28:00;;;;;;;53.40;26.13;;;0.10;99.90;;;;;;5092338;28;20210;-62
2020/12/15 05:30:32;;;;;;;43.65;22.90;;;0.20;99.90;;;;;;5097500;28;20240;-61
2020/12/15 05:33:00;;;;;;;35.53;19.83;;;0.20;99.90;;;;;;5097991;28;20237;-63
2020/12/15 05:35:33;;;;;;;37.92;24.50;;;0.30;99.90;;;;;;5091932;28;20222;-61
2020/12/15 05:38:03;;;;;;;44.65;24.10;;;0.10;99.90;;;;;;5095120;28;20239;-61
2020/12/15 05:40:30;;;;;;;26.45;19.02;;;0.00;99.90;;;;;;5097167;28;20209;-61
2020/12/15 05:43:02;;;;;;;41.83;24.92;;;0.00;99.90;;;;;;5099252;28;20210;-62
2020/12/15 05:45:33;;;;;;;52.55;25.73;;;0.00;99.90;;;;;;5099742;28;20512;-60
2020/12/15 05:48:04;;;;;;;40.50;24.02;;;0.30;99.90;;;;;;5090603;28;20343;-61
2020/12/15 05:50:31;;;;;;;35.03;21.48;;;0.00;99.90;;;;;;5093760;28;20195;-61
2020/12/15 05:53:05;;;;;;;37.55;22.23;;;-0.10;99.90;;;;;;5096860;28;20234;-62
2020/12/15 05:55:32;;;;;;;35.80;24.67;;;0.00;99.90;;;;;;5090449;28;20209;-61
2020/12/15 05:58:00;;;;;;;31.17;20.02;;;-0.10;99.90;;;;;;5094399;28;20206;-61
2020/12/15 06:00:29;;;;;;;47.88;23.33;;;-0.20;99.90;;;;;;5093603;28;20257;-62
2020/12/15 06:03:05;;;;;;;42.40;23.70;;;-0.20;99.90;;;;;;5105470;28;20281;-61
2020/12/15 06:05:33;;;;;;;36.45;22.08;;;-0.20;99.90;;;;;;5099615;28;20201;-61
2020/12/15 06:08:02;;;;;;;41.95;22.45;;;-0.20;99.90;;;;;;5090951;28;20207;-61
2020/12/15 06:10:29;;;;;;;39.97;20.98;;;-0.20;99.90;;;;;;5097199;28;20213;-61
2020/12/15 06:12:58;;;;;;;30.70;19.27;;;-0.30;99.90;;;;;;5093765;28;20758;-61
2020/12/15 06:15:25;;;;;;;40.33;22.63;;;0.10;99.90;;;;;;5089551;28;20666;-60
2020/12/15 06:17:58;;;;;;;45.25;24.13;;;0.00;99.90;;;;;;5096728;28;20198;-61
2020/12/15 06:20:33;;;;;;;35.53;20.25;;;-0.10;99.90;;;;;;5094069;28;20230;-60
2020/12/15 06:23:01;;;;;;;36.45;22.23;;;-0.10;99.90;;;;;;5095003;28;20230;-61
2020/12/15 06:25:35;;;;;;;28.60;19.38;;;0.30;99.90;;;;;;5093094;28;20371;-61
2020/12/15 06:28:08;;;;;;;51.88;26.42;;;-0.10;99.90;;;;;;5091690;28;20214;-61
2020/12/15 06:30:39;;;;;;;41.78;22.38;;;-0.20;99.90;;;;;;5097183;28;20193;-60
2020/12/15 06:33:12;;;;;;;38.60;21.63;;;-0.20;99.90;;;;;;5093477;28;20271;-62
2020/12/15 06:35:39;;;;;;;33.58;20.30;;;0.50;99.90;;;;;;5096501;28;20244;-61
2020/12/15 06:38:15;;;;;;;31.98;18.50;;;-0.10;99.90;;;;;;5092907;28;20207;-60
2020/12/15 06:40:45;;;;;;;26.75;20.20;;;-0.20;99.90;;;;;;5097279;28;20770;-63
2020/12/15 06:43:18;;;;;;;32.95;18.08;;;-0.10;99.90;;;;;;5086173;28;20529;-61
2020/12/15 06:45:49;;;;;;;28.73;13.57;;;0.10;99.90;;;;;;5080398;28;20534;-60
2020/12/15 06:48:22;;;;;;;31.15;17.58;;;0.20;99.90;;;;;;5085925;28;20203;-61
2020/12/15 06:50:49;;;;;;;27.25;16.55;;;-0.50;99.90;;;;;;5092563;28;20277;-61
2020/12/15 06:53:19;;;;;;;24.83;15.77;;;0.10;99.90;;;;;;5095053;28;20244;-62
2020/12/15 06:56:01;;;;;;;31.67;18.25;;;0.10;99.90;;;;;;5091178;28;20528;-61
2020/12/15 06:58:28;;;;;;;30.90;20.83;;;0.10;99.90;;;;;;5092315;28;20209;-62
2020/12/15 07:00:58;;;;;;;26.20;17.05;;;0.10;99.90;;;;;;5092576;28;20247;-61
2020/12/15 07:03:43;;;;;;;35.28;20.25;;;0.00;99.90;;;;;;5080865;28;20229;-60
2020/12/15 07:06:13;;;;;;;49.70;22.40;;;0.00;99.90;;;;;;5084132;28;20199;-62
2020/12/15 07:08:43;;;;;;;32.95;17.55;;;0.20;99.90;;;;;;5096743;28;20493;-60
2020/12/15 07:11:11;;;;;;;30.60;18.38;;;0.40;99.90;;;;;;5087261;28;20209;-61
2020/12/15 07:13:58;;;;;;;29.73;18.67;;;0.20;99.90;;;;;;5079798;28;20226;-61
2020/12/15 07:16:25;;;;;;;34.17;17.98;;;0.30;99.90;;;;;;5086938;28;20207;-61
2020/12/15 07:18:52;;;;;;;24.50;13.82;;;0.40;99.90;;;;;;5091675;28;20213;-60
2020/12/15 07:21:21;;;;;;;34.03;16.52;;;1.20;99.90;;;;;;5092092;28;20198;-61
2020/12/15 07:23:48;;;;;;;28.23;13.65;;;0.30;99.90;;;;;;5092782;28;20251;-60
2020/12/15 07:26:17;;;;;;;17.92;14.82;;;0.50;99.90;;;;;;5095895;28;20229;-62
2020/12/15 07:28:49;;;;;;;23.95;13.77;;;0.60;99.90;;;;;;5093314;28;20234;-60
2020/12/15 07:31:30;;;;;;;20.70;11.68;;;0.60;99.90;;;;;;5096450;28;20225;-61
2020/12/15 07:34:10;;;;;;;35.70;15.15;;;0.60;99.90;;;;;;5085630;28;20298;-61
2020/12/15 07:36:46;;;;;;;32.17;13.77;;;0.70;99.90;;;;;;5090558;28;20225;-61
2020/12/15 07:39:13;;;;;;;16.35;12.65;;;0.80;99.90;;;;;;5092459;28;20603;-61
2020/12/15 07:41:41;;;;;;;22.73;13.38;;;0.80;99.90;;;;;;5097744;28;20261;-61
2020/12/15 07:44:14;;;;;;;24.52;14.48;;;0.80;99.90;;;;;;5094740;28;20613;-61
2020/12/15 07:46:46;;;;;;;21.45;14.15;;;1.00;99.90;;;;;;5095915;28;20501;-62
2020/12/15 07:49:14;;;;;;;23.88;14.48;;;1.20;99.90;;;;;;5091826;28;20201;-61
2020/12/15 07:51:41;;;;;;;25.20;15.30;;;1.30;99.90;;;;;;5082831;28;20266;-62
2020/12/15 07:54:08;;;;;;;30.50;17.95;;;1.40;99.90;;;;;;5098543;28;20225;-60
2020/12/15 07:56:35;;;;;;;22.63;12.93;;;1.50;99.90;;;;;;5095602;28;20211;-66
2020/12/15 07:59:01;;;;;;;24.98;14.10;;;1.70;99.90;;;;;;5097399;28;20501;-61
2020/12/15 08:01:30;;;;;;;20.30;12.50;;;1.80;99.90;;;;;;5096740;28;20225;-61
2020/12/15 08:04:03;;;;;;;30.60;15.07;;;1.90;99.90;;;;;;5097668;28;20244;-61
2020/12/15 08:06:32;;;;;;;28.25;14.55;;;2.00;99.90;;;;;;5097049;28;20202;-62
2020/12/15 08:08:59;;;;;;;26.42;16.15;;;2.00;99.90;;;;;;5085935;28;20423;-63
2020/12/15 08:11:29;;;;;;;22.63;13.02;;;2.10;99.90;;;;;;5082673;28;20211;-62
2020/12/15 08:13:59;;;;;;;22.48;12.80;;;2.20;99.90;;;;;;5094605;28;20263;-62
2020/12/15 08:16:26;;;;;;;24.00;14.45;;;2.20;99.90;;;;;;5097496;28;20574;-62
2020/12/15 08:19:04;;;;;;;28.60;17.08;;;2.10;99.90;;;;;;5092771;28;20226;-61
2020/12/15 08:21:50;;;;;;;28.10;16.55;;;2.20;99.90;;;;;;5085795;28;20508;-61
2020/12/15 08:24:26;;;;;;;22.40;14.63;;;2.30;99.90;;;;;;5090839;28;20206;-61
2020/12/15 08:26:56;;;;;;;30.92;18.17;;;2.20;99.90;;;;;;5078721;28;20249;-61
2020/12/15 08:29:27;;;;;;;29.73;17.83;;;2.20;99.90;;;;;;5084903;28;20392;-62
2020/12/15 08:31:54;;;;;;;24.70;15.13;;;2.30;99.90;;;;;;5089392;28;20294;-62
2020/12/15 08:34:21;;;;;;;21.40;13.25;;;2.40;99.90;;;;;;5083691;28;20234;-61
2020/12/15 08:36:50;;;;;;;28.80;13.48;;;2.50;99.90;;;;;;5092005;28;20321;-61
2020/12/15 08:39:27;;;;;;;28.77;16.23;;;2.50;99.90;;;;;;5097068;28;20269;-61
2020/12/15 08:41:58;;;;;;;23.73;14.27;;;2.60;99.90;;;;;;5081204;28;20207;-61
2020/12/15 08:44:25;;;;;;;24.60;12.32;;;2.80;99.90;;;;;;5083722;28;20510;-62
2020/12/15 08:46:54;;;;;;;22.88;12.55;;;2.60;99.90;;;;;;5092773;28;20415;-64
2020/12/15 08:49:22;;;;;;;20.40;12.57;;;2.90;99.90;;;;;;5091412;28;20313;-62
2020/12/15 08:51:54;;;;;;;23.25;12.82;;;3.00;99.90;;;;;;5100676;28;20204;-61
2020/12/15 08:54:24;;;;;;;15.88;12.38;;;3.10;99.90;;;;;;5090247;28;20718;-62
2020/12/15 08:56:50;;;;;;;21.98;11.52;;;3.30;99.90;;;;;;5083432;28;20206;-62
2020/12/15 08:59:18;;;;;;;22.73;12.52;;;3.20;99.90;;;;;;5094519;28;20213;-62
2020/12/15 09:01:46;;;;;;;19.00;11.85;;;3.30;99.90;;;;;;5095625;28;20535;-61
2020/12/15 09:04:25;;;;;;;18.80;11.55;;;3.40;99.90;;;;;;5100934;28;20246;-61
2020/12/15 09:06:51;;;;;;;14.73;10.05;;;3.50;99.90;;;;;;5100909;28;20205;-61
2020/12/15 09:09:28;;;;;;;19.13;11.13;;;3.60;99.90;;;;;;5099817;28;20207;-62
2020/12/15 09:11:55;;;;;;;28.45;15.07;;;3.50;99.90;;;;;;5100430;28;20201;-61
2020/12/15 09:14:23;;;;;;;27.95;13.30;;;3.60;99.90;;;;;;5095673;28;20232;-63
2020/12/15 09:16:49;;;;;;;22.45;12.00;;;3.60;99.90;;;;;;5087955;28;20212;-62
2020/12/15 09:19:25;;;;;;;17.65;11.27;;;3.70;99.90;;;;;;5094006;28;20247;-62
2020/12/15 09:21:59;;;;;;;20.20;11.00;;;3.70;99.90;;;;;;5100542;28;20204;-61
2020/12/15 09:24:27;;;;;;;15.88;9.57;;;3.60;99.90;;;;;;5100698;28;20214;-62
2020/12/15 09:26:55;;;;;;;16.40;8.90;;;3.60;99.90;;;;;;5100549;28;20270;-62
2020/12/15 09:29:21;;;;;;;13.30;9.40;;;3.70;99.90;;;;;;5099099;28;20209;-62
2020/12/15 09:31:53;;;;;;;17.60;9.38;;;3.70;99.90;;;;;;5099835;28;20468;-62
2020/12/15 09:34:22;;;;;;;14.43;7.60;;;3.90;99.90;;;;;;5085311;28;20527;-62
2020/12/15 09:36:57;;;;;;;12.43;7.82;;;3.80;99.90;;;;;;5100149;28;20618;-63
2020/12/15 09:39:26;;;;;;;8.55;6.15;;;3.90;99.90;;;;;;5098675;28;20259;-63
2020/12/15 09:42:02;;;;;;;15.40;8.68;;;3.80;99.90;;;;;;5098585;28;20213;-62
2020/12/15 09:44:31;;;;;;;10.98;7.40;;;4.10;99.90;;;;;;5086404;28;20206;-63
2020/12/15 09:46:58;;;;;;;14.20;8.55;;;3.90;99.90;;;;;;5084885;28;20579;-61
2020/12/15 09:49:25;;;;;;;13.65;8.10;;;3.90;99.90;;;;;;5086369;28;20214;-63
2020/12/15 09:51:51;;;;;;;16.67;9.30;;;3.90;99.90;;;;;;5099086;28;20202;-62
2020/12/15 09:54:18;;;;;;;10.93;7.15;;;3.90;99.90;;;;;;5099396;28;20230;-61
2020/12/15 09:56:45;;;;;;;13.25;7.57;;;4.10;99.90;;;;;;5092972;28;20208;-62
2020/12/15 09:59:12;;;;;;;13.60;8.63;;;3.90;99.90;;;;;;5084619;28;20207;-62
2020/12/15 10:01:40;;;;;;;14.35;9.00;;;4.20;99.90;;;;;;5092899;28;20771;-61
2020/12/15 10:04:08;;;;;;;16.40;9.50;;;4.20;99.90;;;;;;5090316;28;20215;-60
2020/12/15 10:06:35;;;;;;;15.15;8.40;;;4.30;99.90;;;;;;5086507;28;20233;-63
2020/12/15 10:09:03;;;;;;;18.05;9.57;;;4.10;99.90;;;;;;5099277;28;20213;-65
2020/12/15 10:11:30;;;;;;;11.38;6.60;;;4.20;99.90;;;;;;5098264;28;20216;-63
2020/12/15 10:13:57;;;;;;;12.88;8.63;;;4.40;99.90;;;;;;5090321;28;20234;-62
2020/12/15 10:16:24;;;;;;;14.18;7.00;;;4.60;99.90;;;;;;5085259;28;20207;-65
2020/12/15 10:18:51;;;;;;;11.82;7.85;;;4.60;99.90;;;;;;5096359;28;20269;-61
2020/12/15 10:21:18;;;;;;;13.57;8.63;;;4.70;99.90;;;;;;5088562;28;20198;-62
2020/12/15 10:23:47;;;;;;;18.52;8.80;;;4.90;99.90;;;;;;5093717;28;20237;-63
2020/12/15 10:26:24;;;;;;;16.38;8.18;;;5.00;99.90;;;;;;5099639;28;20217;-61
2020/12/15 10:28:54;;;;;;;17.98;9.15;;;5.00;99.90;;;;;;5098850;28;20208;-61
2020/12/15 10:31:21;;;;;;;11.23;7.70;;;4.90;99.90;;;;;;5093245;28;20240;-62
2020/12/15 10:33:49;;;;;;;12.35;7.97;;;5.10;99.90;;;;;;5095501;28;20428;-61
2020/12/15 10:36:16;;;;;;;13.60;8.90;;;4.90;99.90;;;;;;5098165;28;20512;-64
2020/12/15 10:38:44;;;;;;;15.27;8.93;;;5.00;99.90;;;;;;5097628;28;20869;-61
2020/12/15 10:41:13;;;;;;;14.63;8.43;;;5.00;99.90;;;;;;5097912;28;20208;-61
2020/12/15 10:43:41;;;;;;;13.55;8.55;;;4.90;99.90;;;;;;5090795;28;20249;-62
2020/12/15 10:46:27;;;;;;;16.10;7.80;;;4.90;99.90;;;;;;5081028;28;20201;-62
2020/12/15 10:48:54;;;;;;;11.43;7.72;;;4.90;99.90;;;;;;5087064;28;20210;-61
2020/12/15 10:51:21;;;;;;;15.13;9.35;;;4.70;99.90;;;;;;5086132;28;20377;-63
2020/12/15 10:53:47;;;;;;;17.58;8.25;;;4.90;99.90;;;;;;5095631;28;20289;-62
2020/12/15 10:56:14;;;;;;;20.17;9.55;;;5.00;99.90;;;;;;5097826;28;20214;-62
2020/12/15 10:58:41;;;;;;;16.00;9.18;;;4.80;99.90;;;;;;5097782;28;20206;-61
2020/12/15 11:01:10;;;;;;;10.32;7.25;;;4.70;99.90;;;;;;5099269;28;20210;-62
2020/12/15 11:03:37;;;;;;;12.88;7.57;;;4.60;99.90;;;;;;5097300;28;20205;-62
2020/12/15 11:06:04;;;;;;;15.95;8.27;;;4.70;99.90;;;;;;5087046;28;20347;-67
2020/12/15 11:08:31;;;;;;;16.05;9.18;;;4.80;99.90;;;;;;5097361;28;20217;-63
2020/12/15 11:10:58;;;;;;;19.33;9.15;;;4.80;99.90;;;;;;5091383;28;20261;-62
2020/12/15 11:13:24;;;;;;;15.50;9.30;;;4.80;99.90;;;;;;5090028;28;20228;-62
2020/12/15 11:15:51;;;;;;;15.23;9.18;;;4.90;99.90;;;;;;5084558;28;20202;-62
2020/12/15 11:18:18;;;;;;;26.55;12.43;;;4.90;99.90;;;;;;5089336;28;20203;-62
2020/12/15 11:20:45;;;;;;;16.60;8.82;;;4.80;99.90;;;;;;5089173;28;20234;-62
2020/12/15 11:23:12;;;;;;;12.60;8.43;;;5.00;99.90;;;;;;5097971;28;20217;-62
2020/12/15 11:25:38;;;;;;;14.40;9.15;;;4.90;99.90;;;;;;5092095;28;20528;-62
2020/12/15 11:28:05;;;;;;;16.45;7.70;;;5.10;99.90;;;;;;5091905;28;20217;-62
2020/12/15 11:30:31;;;;;;;19.02;9.93;;;5.00;99.90;;;;;;5092082;28;20399;-62
2020/12/15 11:32:58;;;;;;;17.88;9.00;;;5.10;99.90;;;;;;5082807;28;20222;-61
2020/12/15 11:35:25;;;;;;;18.17;10.65;;;5.10;99.90;;;;;;5091380;28;20207;-62
2020/12/15 11:37:51;;;;;;;18.23;10.05;;;5.10;99.90;;;;;;5094253;28;20243;-61
2020/12/15 11:40:18;;;;;;;13.40;8.13;;;5.20;99.90;;;;;;5088365;28;20492;-60
2020/12/15 11:42:44;;;;;;;17.15;7.72;;;5.10;99.90;;;;;;5093743;28;20425;-61
2020/12/15 11:45:11;;;;;;;11.10;7.93;;;5.20;99.90;;;;;;5086398;28;20215;-63
2020/12/15 11:47:37;;;;;;;17.08;8.38;;;5.30;99.90;;;;;;5085063;28;20513;-62
2020/12/15 11:50:05;;;;;;;18.65;9.73;;;5.50;99.90;;;;;;5077970;28;20217;-63
2020/12/15 11:52:32;;;;;;;23.40;11.15;;;5.40;99.90;;;;;;5085002;28;20202;-61
2020/12/15 11:54:59;;;;;;;21.50;9.57;;;5.60;99.90;;;;;;5093631;28;20311;-61
2020/12/15 11:57:25;;;;;;;29.70;15.52;;;5.90;99.90;;;;;;5082198;28;20274;-62
2020/12/15 11:59:52;;;;;;;20.50;10.93;;;6.00;99.90;;;;;;5086306;28;20213;-62
2020/12/15 12:02:18;;;;;;;19.83;11.20;;;6.10;99.90;;;;;;5091816;28;20543;-62
2020/12/15 12:04:45;;;;;;;22.63;12.60;;;6.00;99.90;;;;;;5080529;28;20260;-63
2020/12/15 12:07:12;;;;;;;18.60;9.98;;;6.10;99.90;;;;;;5092352;28;20201;-62
2020/12/15 12:09:39;;;;;;;12.15;7.82;;;6.00;99.90;;;;;;5097449;28;20207;-61
2020/12/15 12:12:05;;;;;;;15.77;8.70;;;5.90;99.90;;;;;;5094710;28;20198;-62
2020/12/15 12:14:33;;;;;;;16.45;9.57;;;5.90;99.90;;;;;;5099609;28;20257;-62
2020/12/15 12:17:18;;;;;;;17.85;10.18;;;5.80;99.90;;;;;;5096636;28;20407;-61
2020/12/15 12:19:44;;;;;;;18.88;10.75;;;5.80;99.90;;;;;;5097578;28;20265;-61
2020/12/15 12:22:11;;;;;;;21.17;10.07;;;5.70;99.90;;;;;;5095671;28;20436;-62
2020/12/15 12:24:39;;;;;;;13.52;10.20;;;5.70;99.90;;;;;;5099956;28;20232;-61
2020/12/15 12:27:05;;;;;;;25.33;10.45;;;5.70;99.90;;;;;;5096599;28;20265;-63
2020/12/15 12:29:33;;;;;;;16.45;9.48;;;5.70;99.90;;;;;;5096498;28;20203;-62
2020/12/15 12:31:59;;;;;;;17.77;10.02;;;5.70;99.90;;;;;;5093096;28;20222;-62
2020/12/15 12:34:26;;;;;;;15.10;9.40;;;5.80;99.90;;;;;;5099397;28;20558;-62
2020/12/15 12:36:53;;;;;;;11.68;7.00;;;5.90;99.90;;;;;;5095670;28;20241;-62
2020/12/15 12:39:19;;;;;;;21.33;10.60;;;6.00;99.90;;;;;;5097115;28;20210;-62
2020/12/15 12:41:53;;;;;;;17.27;9.60;;;6.00;99.90;;;;;;5094922;28;20203;-63
2020/12/15 12:44:20;;;;;;;13.93;9.57;;;6.00;99.90;;;;;;5094616;28;20222;-62